Time;durP1;ratioP1;P1;durP2;ratioP2;P2;SDS_P1;SDS_P2;PMS_P1;PMS_P2;Temp;Humidity;BMP_temperature;BMP_pressure;BME280_temperature;BME280_humidity;BME280_pressure;Samples;Min_cycle;Max_cycle;Signal;HPM_P1;HPM_P2
2023/03/14 06:02:20;;;;;;;;;3.00;3.00;;;;;12.28;71.72;-19539.75;5196338;23;45299;-91
2023/03/14 06:04:45;;;;;;;;;2.00;2.00;;;;;11.87;70.22;-19528.84;4947681;28;47354;-90
2023/03/14 06:07:10;;;;;;;;;5.00;2.00;;;;;12.36;69.92;-19541.78;4964931;28;45483;-91
2023/03/14 06:09:36;;;;;;;;;2.00;1.33;;;;;11.94;70.16;-19530.88;4969449;28;45519;-90
2023/03/14 06:12:01;;;;;;;;;2.00;2.00;;;;;11.62;69.96;-19522.50;4957831;28;45268;-91
2023/03/14 06:14:26;;;;;;;;;3.00;1.00;;;;;12.11;69.75;-19535.31;4949735;28;47843;-91
2023/03/14 06:16:52;;;;;;;;;3.67;3.00;;;;;10.84;68.87;-19501.88;4958442;28;45553;-91
2023/03/14 06:19:18;;;;;;;;;2.67;2.00;;;;;11.12;68.06;-19509.16;4969809;28;45559;-92
2023/03/14 06:21:44;;;;;;;;;6.00;3.00;;;;;11.68;67.98;-19523.84;4947790;28;46266;-90
2023/03/14 06:24:09;;;;;;;;;2.67;2.67;;;;;11.23;67.60;-19512.00;4941819;28;46904;-90
2023/03/14 06:26:34;;;;;;;;;2.00;2.00;;;;;11.20;66.84;-19511.31;4966818;28;45626;-91
2023/03/14 06:29:03;;;;;;;;;4.00;2.00;;;;;11.22;66.37;-19511.88;4956308;28;45747;-90
2023/03/14 06:31:30;;;;;;;;;3.33;2.00;;;;;11.61;66.37;-19522.25;4956993;28;45366;-90
2023/03/14 06:33:55;;;;;;;;;4.33;3.00;;;;;12.04;66.69;-19533.56;4974195;28;45417;-91
2023/03/14 06:36:21;;;;;;;;;3.67;3.00;;;;;12.01;65.78;-19532.63;4973840;28;45593;-91
2023/03/14 06:38:46;;;;;;;;;3.00;3.00;;;;;11.89;65.82;-19529.38;4955617;28;45625;-91
2023/03/14 06:41:11;;;;;;;;;1.33;1.33;;;;;11.65;65.37;-19523.19;4948266;28;45519;-91
2023/03/14 06:43:37;;;;;;;;;3.33;2.00;;;;;11.84;65.01;-19526.22;4970512;28;46513;-90
2023/03/14 06:46:02;;;;;;;;;2.00;2.00;;;;;11.48;64.90;-19516.66;4959900;28;45635;-91
2023/03/14 06:48:27;;;;;;;;;5.00;3.00;;;;;11.38;65.24;-19514.09;4974300;28;45308;-91
2023/03/14 06:50:53;;;;;;;;;5.33;2.67;;;;;11.31;65.57;-19512.22;4974807;28;45676;-91
2023/03/14 06:53:18;;;;;;;;;6.33;3.00;;;;;11.66;64.62;-19521.50;4959083;28;47220;-92
2023/03/14 06:55:45;;;;;;;;;6.00;4.00;;;;;12.04;65.10;-19199.84;4958268;28;45649;-92
2023/03/14 06:58:11;;;;;;;;;6.00;2.00;;;;;11.38;64.55;-19182.94;4958303;28;45450;-93
2023/03/14 07:00:36;;;;;;;;;2.00;2.00;;;;;11.69;64.84;-19190.84;4956921;28;45369;-92
2023/03/14 07:03:02;;;;;;;;;4.33;3.67;;;;;12.07;63.81;-19200.50;4965234;28;48215;-91
2023/03/14 07:05:27;;;;;;;;;3.00;2.00;;;;;12.08;63.59;-18869.03;4962425;28;45993;-91
2023/03/14 07:07:52;;;;;;;;;2.00;2.00;;;;;11.22;63.69;-18847.47;4971117;28;45365;-90
2023/03/14 07:10:18;;;;;;;;;2.00;2.00;;;;;11.42;63.90;-18852.50;4954582;28;46927;-90
2023/03/14 07:12:43;;;;;;;;;4.00;2.00;;;;;11.24;63.55;-18847.84;4957981;28;47116;-89
2023/03/14 07:15:09;;;;;;;;;2.00;2.00;;;;;11.13;63.57;-18514.03;4973340;28;45550;-89
2023/03/14 07:17:34;;;;;;;;;1.33;1.33;;;;;11.33;62.10;-18187.47;4966344;28;45382;-89
2023/03/14 07:20:00;;;;;;;;;3.00;1.00;;;;;11.72;62.40;-17865.28;4965035;28;45356;-91
2023/03/14 07:22:26;;;;;;;;;2.00;2.00;;;;;10.98;62.27;-17847.84;4947710;28;46813;-92
2023/03/14 07:24:51;;;;;;;;;0.00;0.00;;;;;12.01;62.49;-17872.31;4960207;28;45372;-92
2023/03/14 07:27:17;;;;;;;;;2.00;0.00;;;;;11.59;61.59;-17199.13;4959997;28;45328;-92
2023/03/14 07:29:42;;;;;;;;;2.67;0.67;;;;;11.70;61.71;-17201.66;4959995;28;45313;-91
2023/03/14 07:32:08;;;;;;;;;2.33;1.00;;;;;11.60;61.27;-16867.72;4953906;28;48229;-91
2023/03/14 07:34:33;;;;;;;;;5.00;1.00;;;;;11.07;61.25;-16524.59;4971865;28;45576;-88
2023/03/14 07:36:59;;;;;;;;;1.00;1.00;;;;;11.19;60.82;-16527.34;4974964;28;45514;-88
2023/03/14 07:39:24;;;;;;;;;1.00;1.00;;;;;11.57;60.94;-16203.84;4957015;28;45491;-90
2023/03/14 07:41:50;;;;;;;;;3.00;1.67;;;;;12.06;60.77;-16214.06;4940742;28;47338;-88
2023/03/14 07:44:15;;;;;;;;;2.67;2.67;;;;;10.98;60.18;-15860.00;4959607;28;45373;-87
2023/03/14 07:46:41;;;;;;;;;4.00;2.00;;;;;12.05;60.00;-15549.94;4946143;28;45365;-88
2023/03/14 07:49:06;;;;;;;;;1.33;1.33;;;;;11.57;60.57;-15540.44;4976944;28;45517;-88
2023/03/14 07:51:31;;;;;;;;;2.00;1.00;;;;;12.06;59.76;-15550.13;4978834;28;45423;-88
2023/03/14 07:53:57;;;;;;;;;3.00;1.67;;;;;11.96;59.80;-15216.13;4978886;28;45437;-88
2023/03/14 07:56:22;;;;;;;;;3.00;1.33;;;;;11.01;59.79;-15197.75;4979437;28;45514;-89
2023/03/14 07:58:48;;;;;;;;;3.00;3.00;;;;;12.17;59.09;-14888.19;4959246;28;45476;-88
2023/03/14 08:01:13;;;;;;;;;2.00;1.00;;;;;12.46;59.13;-14893.72;4960429;28;47800;-88
2023/03/14 08:03:38;;;;;;;;;5.67;2.00;;;;;12.58;58.71;-14563.50;4977330;28;45503;-88
2023/03/14 08:06:04;;;;;;;;;2.67;1.00;;;;;11.48;58.35;-14543.28;4976444;28;45555;-88
2023/03/14 08:08:29;;;;;;;;;1.00;1.00;;;;;11.45;58.38;-14211.06;4961599;28;45473;-88
2023/03/14 08:11:06;;;;;;;;;2.00;0.33;;;;;12.35;58.04;-14227.09;4979133;28;46382;-92
2023/03/14 08:13:31;;;;;;;;;2.00;1.00;;;;;12.55;58.05;-13898.19;4948297;28;45736;-87
2023/03/14 08:15:57;;;;;;;;;6.33;2.00;;;;;12.19;57.64;-13892.09;4962956;28;45435;-89
2023/03/14 08:18:22;;;;;;;;;1.00;0.67;;;;;13.24;57.63;-13910.19;4960206;28;45406;-90
2023/03/14 08:20:47;;;;;;;;;2.00;2.00;;;;;12.57;57.16;-13566.19;4953181;28;47168;-91
2023/03/14 08:23:13;;;;;;;;;7.67;4.33;;;;;12.82;57.24;-13570.31;4978494;28;45283;-89
2023/03/14 08:25:38;;;;;;;;;0.67;0.67;;;;;13.37;56.72;-13246.56;4975349;28;45307;-88
2023/03/14 08:28:04;;;;;;;;;2.67;1.67;;;;;13.42;57.02;-12914.53;4977829;28;45423;-89
2023/03/14 08:30:30;;;;;;;;;2.33;0.67;;;;;12.72;56.85;-12570.97;4977012;28;45502;-88
2023/03/14 08:32:58;;;;;;;;;0.67;0.67;;;;;13.21;56.76;-12911.25;4977184;28;45397;-88
2023/03/14 08:35:24;;;;;;;;;1.33;1.33;;;;;13.35;56.99;-12913.34;4955046;28;45481;-89
2023/03/14 08:37:52;;;;;;;;;1.00;1.00;;;;;13.60;56.74;-12584.28;4975291;28;45333;-92
2023/03/14 08:40:18;;;;;;;;;1.00;1.00;;;;;13.46;57.05;-12582.19;4966940;28;48351;-90
2023/03/14 08:42:44;;;;;;;;;3.00;1.67;;;;;12.70;56.70;-12237.97;4974084;28;46498;-88
2023/03/14 08:45:13;;;;;;;;;1.33;1.33;;;;;13.21;57.00;-12245.53;4970198;28;45573;-90
2023/03/14 08:47:39;;;;;;;;;3.67;1.00;;;;;13.14;56.48;-11911.59;4979129;28;45317;-91
2023/03/14 08:50:06;;;;;;;;;0.67;0.67;;;;;13.05;56.54;-11910.31;4960916;28;47228;-90
2023/03/14 08:52:32;;;;;;;;;5.33;4.67;;;;;13.74;56.74;-11920.00;4977844;28;45442;-90
2023/03/14 08:55:07;;;;;;;;;1.67;0.00;;;;;13.95;56.83;-12589.53;4978671;28;45413;-93
2023/03/14 08:57:32;;;;;;;;;0.00;0.00;;;;;13.76;56.31;-12586.59;4963303;28;45548;-92
2023/03/14 08:59:58;;;;;;;;;0.33;0.33;;;;;13.94;55.90;-12256.19;4979599;28;45454;-89
2023/03/14 09:02:25;;;;;;;;;2.33;1.00;;;;;12.52;55.42;-11902.81;4978146;28;45661;-90
2023/03/14 09:04:51;;;;;;;;;0.67;0.67;;;;;12.34;55.75;-11567.91;4960741;28;45399;-89
2023/03/14 09:07:17;;;;;;;;;3.00;0.00;;;;;12.73;55.61;-10907.63;4977408;28;45537;-89
2023/03/14 09:09:42;;;;;;;;;0.33;0.00;;;;;12.55;55.91;-10905.47;4960733;28;47739;-88
2023/03/14 09:12:09;;;;;;;;;0.67;0.67;;;;;12.18;56.88;-11233.25;4977542;28;45325;-88
2023/03/14 09:14:34;;;;;;;;;1.33;0.00;;;;;12.65;58.71;-12569.91;4977744;28;45273;-88
2023/03/14 09:17:00;;;;;;;;;0.33;0.33;;;;;13.46;59.83;-13248.16;4977261;28;45343;-88
2023/03/14 09:19:25;;;;;;;;;0.33;0.00;;;;;12.80;59.76;-12904.84;4959955;28;46920;-88
2023/03/14 09:21:51;;;;;;;;;0.33;0.33;;;;;13.37;61.65;-14577.91;4978075;28;45222;-88
2023/03/14 09:24:17;;;;;;;;;1.00;0.33;;;;;12.85;61.63;-14568.56;4960494;28;45369;-88
2023/03/14 09:26:43;;;;;;;;;0.00;0.00;;;;;13.19;62.01;-14907.31;4978138;28;45345;-88
2023/03/14 09:29:08;;;;;;;;;0.00;0.00;;;;;11.77;62.71;-15212.56;4960059;28;47370;-88
2023/03/14 09:31:33;;;;;;;;;0.00;0.00;;;;;12.54;63.67;-15891.97;4977631;28;45333;-88
2023/03/14 09:33:59;;;;;;;;;0.00;0.00;;;;;11.64;64.06;-16205.13;4960678;28;45455;-88
2023/03/14 09:36:24;;;;;;;;;0.00;0.00;;;;;12.21;63.96;-16217.19;4978318;28;45350;-88
2023/03/14 09:38:49;;;;;;;;;0.67;0.67;;;;;10.94;64.52;-16853.25;4960211;28;46704;-88
2023/03/14 09:41:21;;;;;;;;;0.00;0.00;;;;;12.65;64.48;-16890.97;4977534;28;45396;-88
2023/03/14 09:43:50;;;;;;;;;0.00;0.00;;;;;11.84;64.59;-17536.63;4977738;28;45454;-87
2023/03/14 09:46:17;;;;;;;;;0.00;0.00;;;;;11.92;64.99;-17870.00;4978036;28;45391;-88
2023/03/14 09:48:43;;;;;;;;;0.67;0.67;;;;;12.68;65.03;-18220.16;4977108;28;46433;-89
2023/03/14 09:51:16;;;;;;;;;0.00;0.00;;;;;13.46;63.30;-17906.44;4977593;28;45325;-88
2023/03/14 09:53:44;;;;;;;;;0.67;0.67;;;;;13.34;62.79;-17238.53;4977880;28;45447;-88
2023/03/14 09:56:20;;;;;;;;;0.00;0.00;;;;;12.03;63.06;-16877.31;4960470;28;45468;-89
2023/03/14 09:58:57;;;;;;;;;0.00;0.00;;;;;12.17;63.72;-16880.38;4977072;28;45408;-88
2023/03/14 10:01:29;;;;;;;;;0.00;0.00;;;;;11.13;63.04;-16526.03;4977176;28;45315;-89
2023/03/14 10:03:57;;;;;;;;;0.00;0.00;;;;;12.87;62.94;-16231.03;4977534;28;45345;-89
2023/03/14 10:06:28;;;;;;;;;0.67;0.00;;;;;12.59;63.17;-16557.34;4962410;28;45344;-89
2023/03/14 10:14:33;;;;;;;;;3.33;0.00;;;;;13.41;62.49;-16574.94;6001552;23;46324;-90
2023/03/14 10:17:07;;;;;;;;;0.00;0.00;;;;;13.35;62.09;-16906.22;4997843;28;45276;-91
2023/03/14 10:19:32;;;;;;;;;3.00;0.00;;;;;13.69;61.03;-17246.59;4997935;28;45792;-92
2023/03/14 10:22:01;;;;;;;;;0.00;0.00;;;;;13.98;59.76;-16587.16;4980324;28;45416;-92
2023/03/14 10:24:35;;;;;;;;;0.00;0.00;;;;;14.57;59.72;-16600.00;4980710;28;45387;-92
2023/03/14 10:27:17;;;;;;;;;0.00;0.00;;;;;15.41;58.60;-17285.22;4997633;28;45669;-91
2023/03/14 10:29:55;;;;;;;;;0.00;0.00;;;;;16.03;57.03;-17967.13;4980555;28;47736;-92
2023/03/14 10:32:28;;;;;;;;;1.00;1.00;;;;;18.08;55.22;-18015.22;4966200;28;45469;-90
2023/03/14 10:35:13;;;;;;;;;0.00;0.00;;;;;18.98;52.27;-16694.09;4977390;28;45460;-92
2023/03/14 10:37:59;;;;;;;;;1.00;0.00;;;;;20.58;49.49;-13698.97;4977459;28;45365;-93
2023/03/14 10:40:31;;;;;;;;;0.00;0.00;;;;;21.55;46.89;-9328.34;4977768;28;45566;-92
2023/03/14 10:42:58;;;;;;;;;0.00;0.00;;;;;22.10;43.53;-199.09;4977165;28;45440;-92
2023/03/14 10:45:38;;;;;;;;;1.00;1.00;;;;;23.14;41.24;10678.31;4992203;28;45423;-92
2023/03/14 10:48:20;;;;;;;;;0.00;0.00;;;;;23.50;39.56;28089.34;4979537;28;45399;-90
2023/03/14 10:51:11;;;;;;;;;0.00;0.00;;;;;24.02;39.12;39734.34;4994370;28;47961;-89
2023/03/14 10:53:48;;;;;;;;;0.00;0.00;;;;;24.66;37.98;48177.94;4996719;28;45473;-89
2023/03/14 10:56:18;;;;;;;;;0.00;0.00;;;;;25.33;35.89;55179.56;4996845;28;45329;-89
2023/03/14 10:58:45;;;;;;;;;0.00;0.00;;;;;25.65;35.94;56424.53;4996931;28;45344;-89
2023/03/14 11:01:40;;;;;;;;;2.00;0.00;;;;;26.48;34.57;60756.03;4996589;28;46273;-89
2023/03/14 11:04:20;;;;;;;;;0.20;0.00;;;;;26.43;32.25;63837.06;4994373;28;45519;-90
2023/03/14 11:06:58;;;;;;;;;0.00;0.00;;;;;27.44;31.98;65293.28;4995044;28;45433;-90
2023/03/14 11:09:30;;;;;;;;;0.25;0.00;;;;;27.69;31.28;66040.78;4979585;28;45684;-90
2023/03/14 11:12:11;;;;;;;;;0.00;0.00;;;;;27.98;30.00;66657.25;4978589;28;48163;-90
2023/03/14 11:14:43;;;;;;;;;0.00;0.00;;;;;27.95;29.76;67007.00;4995845;28;45427;-90
2023/03/14 11:17:35;;;;;;;;;1.25;0.25;;;;;28.53;30.02;67167.16;4996405;28;45359;-90
2023/03/14 11:20:32;;;;;;;;;1.50;0.00;;;;;28.84;28.72;67294.22;4915637;28;45750;-90
2023/03/14 11:22:57;;;;;;;;;1.75;0.00;;;;;29.17;27.62;67445.50;4917830;28;45700;-90
2023/03/14 11:25:34;;;;;;;;;0.00;0.00;;;;;28.77;27.71;67664.91;4901881;28;45652;-90
2023/03/14 11:28:37;;;;;;;;;2.00;1.00;;;;;28.60;26.77;68053.84;4912330;28;45570;-90
2023/03/14 11:31:26;;;;;;;;;0.00;0.00;;;;;28.03;27.49;68292.41;4919632;28;45437;-90
2023/03/14 11:33:58;;;;;;;;;0.00;0.00;;;;;27.10;27.34;68420.44;4910818;28;46345;-88
2023/03/14 11:36:51;;;;;;;;;0.20;0.00;;;;;26.05;27.76;68711.50;4918337;28;45496;-90
2023/03/14 11:39:19;;;;;;;;;2.00;0.00;;;;;25.10;28.04;68775.59;4915105;28;45372;-90
2023/03/14 11:41:52;;;;;;;;;0.00;0.00;;;;;23.83;28.88;68833.81;4899385;29;45390;-90
2023/03/14 11:44:19;;;;;;;;;1.00;0.00;;;;;24.38;29.79;68832.88;4914449;28;45389;-89
2023/03/14 11:46:53;;;;;;;;;0.80;0.00;;;;;24.62;28.96;68828.81;4918819;28;45500;-89
2023/03/14 11:49:38;;;;;;;;;0.00;0.00;;;;;25.04;29.09;68701.44;4914177;28;45520;-89
2023/03/14 11:52:20;;;;;;;;;0.00;0.00;;;;;25.54;28.21;68709.97;4918301;28;45507;-90
2023/03/14 11:55:00;;;;;;;;;0.25;0.00;;;;;24.92;27.51;68821.97;4918154;28;46633;-90
2023/03/14 11:57:25;;;;;;;;;0.00;0.00;;;;;23.98;27.85;68911.59;4950535;28;45438;-89
2023/03/14 12:00:04;;;;;;;;;0.00;0.00;;;;;24.24;27.49;68838.53;4998585;28;45387;-90
2023/03/14 12:03:09;;;;;;;;;0.00;0.00;;;;;24.07;28.23;68964.91;4980514;28;45325;-90
2023/03/14 12:05:58;;;;;;;;;1.25;0.00;;;;;24.89;28.42;68805.50;4973683;28;48411;-90
2023/03/14 12:08:32;;;;;;;;;0.00;0.00;;;;;25.35;27.39;68763.38;4997816;28;45505;-90
2023/03/14 12:11:12;;;;;;;;;0.00;0.00;;;;;24.89;26.94;68654.00;4980590;28;45543;-90
2023/03/14 12:13:40;;;;;;;;;0.00;0.00;;;;;25.88;26.01;68717.03;4981116;28;45446;-90
2023/03/14 12:16:19;;;;;;;;;0.00;0.00;;;;;25.44;26.02;68752.34;5000298;28;47167;-90
2023/03/14 12:18:45;;;;;;;;;0.00;0.00;;;;;25.10;26.85;68837.84;4974289;28;45606;-90
2023/03/14 12:21:12;;;;;;;;;0.00;0.00;;;;;24.41;27.08;68734.28;4997470;28;45495;-90
2023/03/14 12:23:42;;;;;;;;;0.00;0.00;;;;;23.30;27.09;68646.63;4998027;28;45529;-89
2023/03/14 12:26:13;;;;;;;;;0.00;0.00;;;;;24.33;27.05;68848.59;4980307;28;47359;-90
2023/03/14 12:28:44;;;;;;;;;0.00;0.00;;;;;24.43;26.80;68823.16;4990242;28;45541;-90
2023/03/14 12:31:28;;;;;;;;;1.00;0.00;;;;;24.55;26.76;68817.84;4979129;28;45461;-90
2023/03/14 12:34:05;;;;;;;;;0.00;0.00;;;;;24.59;26.37;68819.28;4975005;28;45491;-90
2023/03/14 12:36:48;;;;;;;;;0.75;0.00;;;;;23.76;26.79;68761.31;4979557;28;47334;-89
2023/03/14 12:39:13;;;;;;;;;2.60;0.00;;;;;24.19;26.89;68832.59;4980120;28;45518;-88
2023/03/14 12:41:46;;;;;;;;;0.00;0.00;;;;;23.45;27.51;68903.38;4997670;28;45352;-90
2023/03/14 12:44:29;;;;;;;;;0.00;0.00;;;;;22.70;28.58;68936.06;4997735;28;45751;-90
2023/03/14 12:46:57;;;;;;;;;0.00;0.00;;;;;21.84;28.33;69076.06;4979707;28;47740;-90
2023/03/14 12:49:35;;;;;;;;;0.00;0.00;;;;;21.65;28.80;69085.75;4979180;28;45457;-89
2023/03/14 12:52:02;;;;;;;;;0.00;0.00;;;;;21.04;29.38;68928.94;4997970;28;45379;-90
2023/03/14 12:54:38;;;;;;;;;0.75;0.00;;;;;20.88;30.00;68921.28;4986088;28;45566;-90
2023/03/14 12:57:28;;;;;;;;;0.00;0.00;;;;;20.44;30.59;68905.13;4997542;28;45595;-89
2023/03/14 12:59:59;;;;;;;;;0.75;0.00;;;;;20.11;31.30;68976.59;4991654;28;45410;-89
2023/03/14 13:02:29;;;;;;;;;0.50;0.00;;;;;18.94;31.99;68723.78;4997226;28;45340;-90
2023/03/14 13:05:14;;;;;;;;;1.50;0.00;;;;;18.84;32.69;68818.50;4982402;28;45443;-89
2023/03/14 13:07:45;;;;;;;;;0.00;0.00;;;;;19.08;33.34;68863.09;4996631;28;45686;-90
2023/03/14 13:10:11;;;;;;;;;0.00;0.00;;;;;18.85;34.14;68855.09;4997238;28;45412;-89
2023/03/14 13:12:56;;;;;;;;;0.00;0.00;;;;;18.45;37.09;68856.34;4997042;28;45356;-89
2023/03/14 13:15:31;;;;;;;;;0.50;0.00;;;;;17.84;40.18;68785.63;4997103;28;45499;-90
2023/03/14 13:18:02;;;;;;;;;0.00;0.00;;;;;17.59;41.06;68837.31;4994604;28;45436;-89
2023/03/14 13:20:32;;;;;;;;;1.00;0.00;;;;;16.19;41.83;68701.19;4996824;28;45356;-90
2023/03/14 13:22:57;;;;;;;;;0.50;0.00;;;;;16.79;42.72;68714.66;4984552;28;45428;-90
2023/03/14 13:25:23;;;;;;;;;0.50;0.50;;;;;15.98;44.10;68469.41;4979287;28;45413;-89
2023/03/14 13:27:53;;;;;;;;;0.00;0.00;;;;;15.76;45.71;68424.69;4978929;28;48140;-90
2023/03/14 13:30:27;;;;;;;;;0.67;0.00;;;;;15.51;49.04;66882.38;4997280;28;45504;-89
2023/03/14 13:32:54;;;;;;;;;0.50;0.50;;;;;16.28;50.54;65505.91;4979315;28;45546;-90
2023/03/14 13:35:21;;;;;;;;;0.00;0.00;;;;;16.04;51.16;63987.09;4978994;28;45383;-89
2023/03/14 13:37:46;;;;;;;;;0.00;0.00;;;;;15.75;52.06;62605.63;4996646;28;46163;-89
2023/03/14 13:40:29;;;;;;;;;2.00;0.00;;;;;15.33;53.67;57884.69;4996726;28;45348;-89
2023/03/14 13:43:19;;;;;;;;;0.00;0.00;;;;;15.09;52.66;58193.00;4996463;28;45576;-89
2023/03/14 13:45:51;;;;;;;;;0.00;0.00;;;;;14.47;54.30;53870.28;4996782;28;45449;-89
2023/03/14 13:48:18;;;;;;;;;0.00;0.00;;;;;14.67;55.97;46148.53;4996188;28;45609;-89
2023/03/14 13:50:51;;;;;;;;;0.00;0.00;;;;;14.55;56.01;42410.34;4982340;28;45581;-89
2023/03/14 13:53:17;;;;;;;;;0.00;0.00;;;;;13.39;57.84;29265.88;4996551;28;46303;-89
2023/03/14 13:55:42;;;;;;;;;2.00;0.00;;;;;13.50;58.14;23552.91;4997329;28;45368;-89
2023/03/14 13:58:24;;;;;;;;;1.00;0.00;;;;;14.02;57.71;22565.97;4996247;28;45559;-89
2023/03/14 14:01:03;;;;;;;;;0.00;0.00;;;;;14.22;56.83;24929.91;4996172;28;45383;-89
2023/03/14 14:03:31;;;;;;;;;0.00;0.00;;;;;14.21;58.42;18874.63;4994330;28;45478;-91
2023/03/14 14:06:00;;;;;;;;;0.67;0.00;;;;;13.73;57.32;21209.56;4997298;28;45381;-88
2023/03/14 14:08:26;;;;;;;;;0.00;0.00;;;;;14.25;57.67;18539.91;4996125;28;45363;-87
2023/03/14 14:10:58;;;;;;;;;1.00;0.00;;;;;14.25;57.32;19548.25;4996593;28;45429;-87
2023/03/14 14:13:26;;;;;;;;;0.00;0.00;;;;;14.40;57.85;16864.44;4977909;28;45371;-89
2023/03/14 14:15:54;;;;;;;;;1.00;0.00;;;;;13.55;57.61;16165.97;4981209;28;45591;-88
2023/03/14 14:18:25;;;;;;;;;0.00;0.00;;;;;14.73;57.80;13514.06;4976079;28;46104;-87
2023/03/14 14:20:51;;;;;;;;;1.33;0.00;;;;;14.76;57.41;13850.88;4995871;28;45356;-89
2023/03/14 14:23:24;;;;;;;;;0.00;0.00;;;;;14.71;56.87;16538.28;4977693;28;45511;-88
2023/03/14 14:25:50;;;;;;;;;0.67;0.00;;;;;14.74;56.77;16203.06;4996321;28;45565;-88
2023/03/14 14:28:32;;;;;;;;;0.00;0.00;;;;;14.71;56.46;17883.16;4995818;28;46116;-87
2023/03/14 14:31:19;;;;;;;;;0.00;0.00;;;;;14.66;55.85;20236.13;4996139;28;45364;-88
2023/03/14 14:33:50;;;;;;;;;0.00;0.00;;;;;14.61;56.27;18888.59;4990370;28;45435;-88
2023/03/14 14:36:26;;;;;;;;;1.00;0.00;;;;;14.23;54.43;24930.59;4996232;28;45447;-88
2023/03/14 14:39:13;;;;;;;;;0.00;0.00;;;;;14.28;55.01;25606.13;4995681;28;47602;-88
2023/03/14 14:41:42;;;;;;;;;0.00;0.00;;;;;14.09;54.32;28291.44;4980766;28;45400;-88
2023/03/14 14:44:13;;;;;;;;;0.00;0.00;;;;;14.13;55.79;24926.22;4978547;28;45552;-88
2023/03/14 14:46:38;;;;;;;;;0.00;0.00;;;;;14.04;55.05;28626.00;4996208;28;45587;-89
2023/03/14 14:49:10;;;;;;;;;0.00;0.00;;;;;13.98;54.40;29633.25;4979049;28;47002;-88
2023/03/14 14:51:50;;;;;;;;;0.00;0.00;;;;;13.90;54.67;30671.59;4996424;28;45449;-88
2023/03/14 14:54:17;;;;;;;;;0.00;0.00;;;;;13.87;54.55;31738.88;4998789;28;45321;-88
2023/03/14 14:56:51;;;;;;;;;0.00;0.00;;;;;13.70;53.85;34858.41;5000408;28;45337;-88
2023/03/14 14:59:28;;;;;;;;;0.00;0.00;;;;;13.00;53.39;36536.94;5001356;28;46226;-88
2023/03/14 15:02:02;;;;;;;;;0.00;0.00;;;;;13.76;54.22;35156.97;4999742;28;45289;-88
2023/03/14 15:04:31;;;;;;;;;0.00;0.00;;;;;13.78;53.73;36457.56;4993381;28;45975;-87
2023/03/14 15:06:56;;;;;;;;;0.00;0.00;;;;;13.82;53.27;37628.22;4981644;28;45474;-88
2023/03/14 15:09:22;;;;;;;;;0.00;0.00;;;;;13.96;53.08;37658.41;4998678;28;45393;-87
2023/03/14 15:11:48;;;;;;;;;0.00;0.00;;;;;14.05;52.83;38297.63;4998286;28;45921;-88
2023/03/14 15:14:14;;;;;;;;;0.00;0.00;;;;;14.09;53.28;36989.22;4980885;28;45393;-87
2023/03/14 15:16:40;;;;;;;;;0.00;0.00;;;;;14.20;52.62;37826.94;4998164;28;45594;-88
2023/03/14 15:19:17;;;;;;;;;0.00;0.00;;;;;14.08;52.10;39117.72;4998363;28;46123;-88
2023/03/14 15:21:43;;;;;;;;;0.00;0.00;;;;;13.71;51.99;39369.56;4996569;28;45439;-88
2023/03/14 15:24:09;;;;;;;;;0.00;0.00;;;;;13.75;51.23;42387.91;4997657;28;45914;-88
2023/03/14 15:26:35;;;;;;;;;0.33;0.00;;;;;14.37;50.93;44011.69;4998501;28;45304;-87
2023/03/14 15:29:00;;;;;;;;;0.00;0.00;;;;;14.33;51.11;44706.53;4998821;28;45578;-88
2023/03/14 15:31:25;;;;;;;;;0.00;0.00;;;;;13.97;50.91;45447.88;4998682;28;45412;-88
2023/03/14 15:33:50;;;;;;;;;1.00;0.00;;;;;14.34;51.42;44725.81;4979258;28;45460;-89
2023/03/14 15:36:20;;;;;;;;;0.00;0.00;;;;;14.34;50.98;45786.19;4997554;28;45350;-85
2023/03/14 15:38:45;;;;;;;;;0.00;0.00;;;;;14.33;51.25;45441.59;4995406;28;46089;-86
2023/03/14 15:41:11;;;;;;;;;0.00;0.00;;;;;14.31;51.17;45857.81;4997403;28;45364;-87
2023/03/14 15:43:36;;;;;;;;;0.00;0.00;;;;;14.32;51.08;45861.66;4996359;28;45981;-86
2023/03/14 15:46:01;;;;;;;;;0.00;0.00;;;;;14.38;51.39;44546.16;4996971;28;45587;-88
2023/03/14 15:48:27;;;;;;;;;1.00;0.00;;;;;14.40;51.38;45166.88;4994585;28;46723;-87
2023/03/14 15:50:52;;;;;;;;;0.00;0.00;;;;;14.04;51.04;45796.72;4996031;28;45496;-89
2023/03/14 15:53:17;;;;;;;;;0.67;0.00;;;;;14.19;51.42;45126.75;4996291;28;45515;-88
2023/03/14 15:55:43;;;;;;;;;0.00;0.00;;;;;14.29;51.07;46321.66;4997464;28;45526;-89
2023/03/14 15:58:16;;;;;;;;;0.00;0.00;;;;;14.47;51.02;45960.28;4987903;28;45514;-90
2023/03/14 16:00:42;;;;;;;;;0.00;0.00;;;;;14.49;51.14;45953.97;4982863;28;45503;-89
2023/03/14 16:03:07;;;;;;;;;0.00;0.00;;;;;14.49;51.42;45570.41;4978203;28;45704;-87
2023/03/14 16:05:32;;;;;;;;;2.33;2.33;;;;;13.77;50.93;46953.91;4978397;28;45641;-87
2023/03/14 16:07:58;;;;;;;;;2.67;0.00;;;;;13.80;50.39;47894.84;4977442;28;47511;-86
2023/03/14 16:10:23;;;;;;;;;0.00;0.00;;;;;13.75;50.19;48810.69;4994073;28;45500;-87
2023/03/14 16:12:49;;;;;;;;;1.67;0.00;;;;;14.33;50.46;48788.59;4991958;28;45486;-89
2023/03/14 16:15:14;;;;;;;;;5.33;5.33;;;;;14.29;50.76;49147.31;4993881;28;45467;-87
2023/03/14 16:17:42;;;;;;;;;8.00;6.67;;;;;14.24;50.94;49076.84;4992489;28;45679;-85
2023/03/14 16:20:08;;;;;;;;;1.33;0.67;;;;;14.27;51.04;48886.25;4979232;28;45571;-88
2023/03/14 16:22:35;;;;;;;;;0.67;0.67;;;;;13.90;50.78;49127.72;4994987;28;45600;-88
2023/03/14 16:25:06;;;;;;;;;1.00;0.00;;;;;13.84;51.24;49051.16;4997701;28;45376;-88
2023/03/14 16:27:31;;;;;;;;;1.00;1.00;;;;;13.75;51.19;49157.50;4978831;28;48195;-87
2023/03/14 16:29:59;;;;;;;;;0.00;0.00;;;;;14.19;51.85;47945.38;4997198;28;45433;-89
2023/03/14 16:32:24;;;;;;;;;2.00;0.00;;;;;14.20;53.02;44654.34;4996922;28;45540;-87
2023/03/14 16:34:50;;;;;;;;;2.00;0.00;;;;;14.20;51.98;46124.31;4997540;28;45357;-87
2023/03/14 16:37:15;;;;;;;;;2.00;1.00;;;;;13.41;51.33;48201.00;4997200;28;45407;-87
2023/03/14 16:39:41;;;;;;;;;2.67;0.00;;;;;13.49;51.64;47967.72;4996394;28;45541;-87
2023/03/14 16:42:06;;;;;;;;;0.00;0.00;;;;;13.80;51.00;50174.44;4982163;28;45440;-86
2023/03/14 16:44:31;;;;;;;;;1.33;0.00;;;;;13.03;50.52;50850.81;4994655;28;45495;-87
2023/03/14 16:46:57;;;;;;;;;0.00;0.00;;;;;13.39;50.04;52550.84;4996383;28;46241;-88
2023/03/14 16:49:22;;;;;;;;;1.00;1.00;;;;;13.72;49.85;53083.66;4995912;28;45568;-86
2023/03/14 16:51:47;;;;;;;;;0.67;0.00;;;;;13.89;49.20;54494.56;4979486;28;45479;-87
2023/03/14 16:54:13;;;;;;;;;0.67;0.67;;;;;13.81;49.54;54958.34;4997273;28;45522;-87
2023/03/14 16:56:38;;;;;;;;;0.00;0.00;;;;;13.72;49.02;55999.00;4995534;28;45642;-87
2023/03/14 16:59:03;;;;;;;;;0.67;0.00;;;;;13.31;49.07;56507.88;4978870;28;45430;-88
2023/03/14 17:01:29;;;;;;;;;0.00;0.00;;;;;13.52;49.31;56692.31;4989978;28;45914;-88
2023/03/14 17:03:54;;;;;;;;;0.33;0.33;;;;;13.50;49.61;56619.31;4996822;28;45474;-89
2023/03/14 17:06:25;;;;;;;;;0.00;0.00;;;;;13.40;48.94;57536.31;4996609;28;46159;-88
2023/03/14 17:08:52;;;;;;;;;1.33;0.00;;;;;13.33;49.24;57793.63;4996903;28;45517;-85
2023/03/14 17:11:17;;;;;;;;;1.00;1.00;;;;;13.29;49.46;57655.03;4995726;28;45501;-83
2023/03/14 17:13:43;;;;;;;;;0.67;0.67;;;;;13.28;49.56;57622.25;4976810;28;45570;-83
2023/03/14 17:16:08;;;;;;;;;1.67;0.33;;;;;12.72;49.52;57725.69;4996344;28;46034;-89
2023/03/14 17:18:35;;;;;;;;;0.67;0.00;;;;;13.23;50.02;57554.16;4994372;28;45541;-90
2023/03/14 17:21:01;;;;;;;;;1.67;0.00;;;;;13.22;49.63;57878.84;4991447;28;45403;-88
2023/03/14 17:23:29;;;;;;;;;2.00;0.67;;;;;12.51;49.91;57332.63;4996202;28;45930;-88
2023/03/14 17:25:54;;;;;;;;;0.67;0.67;;;;;13.23;49.78;57723.13;4996065;28;46099;-88
2023/03/14 17:28:21;;;;;;;;;0.33;0.33;;;;;13.20;49.99;57641.16;4961677;28;45412;-88
2023/03/14 17:30:47;;;;;;;;;0.00;0.00;;;;;13.15;49.95;57776.47;4989078;28;46021;-88
2023/03/14 17:33:13;;;;;;;;;0.67;0.67;;;;;12.81;50.20;57742.69;4996823;28;45340;-87
2023/03/14 17:35:41;;;;;;;;;0.67;0.67;;;;;13.09;50.59;57389.72;4990856;28;47314;-86
2023/03/14 17:38:06;;;;;;;;;0.33;0.33;;;;;13.09;50.62;57027.06;4995907;28;45420;-86
2023/03/14 17:40:31;;;;;;;;;0.67;0.67;;;;;12.98;50.67;56893.88;4995908;28;45314;-87
2023/03/14 17:42:57;;;;;;;;;2.00;0.33;;;;;12.90;51.33;56471.03;4996108;28;45392;-87
2023/03/14 17:45:22;;;;;;;;;1.67;1.00;;;;;12.23;51.60;55867.34;4995403;28;46208;-87
2023/03/14 17:47:48;;;;;;;;;3.67;2.67;;;;;13.01;51.95;55587.06;4996236;28;45334;-87